Flight Track Log - Related Links

Times and Time Zones

All times are in EDT time to prevent confusion due to time zone crossing. See the N888FM flight status page for this flight to view local times or setup timezone preferences in your user account.

Time Position Orientation Groundspeed Altitude Reporting Facility
EDT Latitude Longitude Course Direction KTS MPH feet Rate Location/Type
Mon 09:36:49 PM 41.2147 -75.8072 204° Southwest 190 219 5,600  Level New York Center
Mon 09:37:50 PM 41.1492 -75.8300 195° South 222 255 6,900 1,240 Climbing New York Center
Mon 09:38:50 PM 41.0897 -75.8558 198° South 231 266 8,100 1,200 Climbing New York Center
Mon 09:39:50 PM 41.0258 -75.8842 198° South 237 273 9,300 1,169 Climbing New York Center
Mon 09:40:00 PM 40.9673 -75.8331 198° South  Level FlightAware Approximate
Mon 09:40:48 PM 40.9644 -75.9125 199° South 237 273 10,400  Level New York Center
Mon 09:41:00 PM 40.9063 -75.8729 204° Southwest  Level FlightAware Approximate
Mon 09:41:50 PM 40.9089 -75.9383 199° South 237 273 11,600  Level New York Center
Mon 09:42:48 PM 40.8494 -75.9669 200° South 232 267 12,800 1,100 Climbing New York Center
Mon 09:43:50 PM 40.7814 -75.9972 199° South 232 267 13,800 992 Climbing New York Center
Mon 09:44:49 PM 40.7319 -76.0292 206° Southwest 232 267 14,800 950 Climbing New York Center
Mon 09:45:50 PM 40.6817 -76.0828 219° Southwest 232 267 15,700 605 Climbing New York Center
Mon 09:46:48 PM 40.6267 -76.1469 205° Southwest 239 275 16,000 75 Climbing New York Center
Mon 09:47:00 PM 40.6338 -76.1732 205° Southwest  Level FlightAware Approximate
Mon 09:49:49 PM 40.4681 -76.3308 221° Southwest 273 314 16,000  Level New York Center
Mon 09:50:48 PM 40.4064 -76.4022 221° Southwest 273 314 16,000  Level New York Center
Mon 09:51:49 PM 40.3492 -76.4658 220° Southwest 273 314 16,000  Level New York Center
Mon 09:52:49 PM 40.2917 -76.5344 222° Southwest 273 314 16,000 -100 Level New York Center
Mon 09:53:49 PM 40.2408 -76.5928 221° Southwest 273 314 15,800 -808 Descending New York Center
Mon 09:56:02 PM 40.1000 -76.7500 221° Southwest 326 375 13,400 -1,052 Descending Potomac TRACON
Mon 09:57:03 PM 40.0333 -76.8333 224° Southwest 299 344 12,400 -694 Descending Potomac TRACON
Mon 09:58:03 PM 39.9667 -76.9000 217° Southwest 271 312 12,000 -200 Descending Potomac TRACON
Mon 09:59:03 PM 39.9167 -76.9667 226° Southwest 259 298 12,000  Level Potomac TRACON
Mon 10:00:09 PM 39.8667 -77.0333 226° Southwest 270 311 12,000  Level Potomac TRACON
Mon 10:01:09 PM 39.8000 -77.1000 218° Southwest 275 316 12,000 -500 Level Potomac TRACON
Mon 10:02:09 PM 39.7500 -77.1667 226° Southwest 284 327 11,000 -1,000 Descending Potomac TRACON
Mon 10:03:15 PM 39.6833 -77.2333 218° Southwest 287 330 9,900 -1,048 Descending Potomac TRACON
Mon 10:04:15 PM 39.6333 -77.3333 237° Southwest 279 321 8,800 -994 Descending Potomac TRACON
Mon 10:06:10 PM 39.5000 -77.4000 201° Southwest 270 311 7,000 -617 Descending Potomac TRACON
Mon 10:07:10 PM 39.4500 -77.4500 218° Southwest 246 283 7,000 -300 Level Potomac TRACON
Mon 10:08:10 PM 39.3833 -77.4500 180° South 246 283 6,400 -850 Descending Potomac TRACON
Mon 10:09:10 PM 39.3000 -77.4500 180° South 241 277 5,300 -1,300 Descending Potomac TRACON
Mon 10:10:10 PM 39.2500 -77.4500 180° South 222 255 3,800 -1,150 Descending Potomac TRACON
Mon 10:11:10 PM 39.1833 -77.4500 180° South 198 228 3,000 -400 Descending Potomac TRACON
Mon 10:12:10 PM 39.1333 -77.4500 180° South 163 188 3,000 -150 Level Potomac TRACON
Mon 10:13:10 PM 39.1000 -77.4500 180° South 164 189 2,700 -550 Descending Potomac TRACON
Mon 10:14:10 PM 39.0500 -77.4500 180° South 128 147 1,900 -737 Descending Potomac TRACON
Mon 10:15:04 PM 39.0167 -77.4667 201° Southwest 128 147 1,300 -600 Descending Potomac TRACON
Mon 10:16:10 PM 38.9833 -77.4667 180° South 108 124 700 -545 Descending Potomac TRACON
Mon 10:18:00 PM 38.9474 -77.4599 90° East  Level Estimated
Mon 10:25:00 PM 38.9474 -77.4599 90° East  Level Estimated
Mon 10:26:00 PM 38.9474 -77.4599 90° East  Level Estimated
Mon 10:27:00 PM 38.9474 -77.4599 90° East  Level Estimated
Mon 10:28:00 PM 38.9474 -77.4599 90° East  Level Estimated

Login

Don't have an account? Register now (free) for customized features, flight alerts, and more!